createdAt,value
2023-01-17T00:01:46.591Z,1.30
2023-01-17T00:04:32.014Z,1.20
2023-01-17T00:09:58.491Z,1.10
2023-01-17T00:12:30.347Z,1.30
2023-01-17T00:14:58.583Z,1.30
2023-01-17T00:17:27.438Z,1.45
2023-01-17T00:20:13.348Z,1.40
2023-01-17T00:23:00.896Z,1.33
2023-01-17T00:25:51.699Z,1.40
2023-01-17T00:28:18.696Z,1.40
2023-01-17T00:30:46.428Z,1.40
2023-01-17T00:33:13.111Z,1.50
2023-01-17T00:35:40.149Z,1.50
2023-01-17T00:38:09.291Z,1.17
2023-01-17T00:40:37.915Z,1.42
2023-01-17T00:43:24.113Z,1.60
2023-01-17T00:46:09.957Z,1.50
2023-01-17T00:48:56.777Z,1.52
2023-01-17T00:51:43.889Z,1.50
2023-01-17T00:54:29.389Z,1.63
2023-01-17T00:59:59.836Z,1.42
2023-01-17T01:05:31.407Z,1.38
2023-01-17T01:08:16.867Z,1.10
2023-01-17T01:13:49.386Z,1.30
2023-01-17T01:16:35.935Z,1.50
2023-01-17T01:19:22.063Z,1.27
2023-01-17T01:22:07.815Z,1.30
2023-01-17T01:24:53.723Z,1.50
2023-01-17T01:27:38.906Z,1.40
2023-01-17T01:30:24.826Z,1.35
2023-01-17T01:33:10.066Z,1.45
2023-01-17T01:35:36.904Z,1.30
2023-01-17T01:38:03.805Z,1.42
2023-01-17T01:40:30.262Z,1.60
2023-01-17T01:42:59.487Z,1.10
2023-01-17T01:45:28.648Z,1.13
2023-01-17T01:48:01.492Z,1.30
2023-01-17T01:50:30.438Z,1.08
2023-01-17T01:53:00.361Z,1.27
2023-01-17T01:55:33.443Z,1.05
2023-01-17T01:58:08.110Z,1.20
2023-01-17T02:00:36.686Z,1.33
2023-01-17T02:03:09.915Z,1.20
2023-01-17T02:05:36.600Z,1.00
2023-01-17T02:08:10.562Z,1.17
2023-01-17T02:10:39.888Z,0.95
2023-01-17T02:13:07.520Z,1.02
2023-01-17T02:15:49.345Z,1.30
2023-01-17T02:18:53.500Z,1.58
2023-01-17T02:21:24.314Z,1.30
2023-01-17T02:24:09.393Z,1.40
2023-01-17T02:27:16.236Z,1.35
2023-01-17T02:29:52.386Z,1.52
2023-01-17T02:32:35.181Z,1.70
2023-01-17T02:35:28.013Z,1.30
2023-01-17T02:38:15.371Z,1.50
2023-01-17T02:40:49.603Z,1.80
2023-01-17T02:43:18.592Z,1.92
2023-01-17T02:45:45.816Z,1.80
2023-01-17T02:48:14.945Z,1.55
2023-01-17T02:50:55.621Z,1.63
2023-01-17T02:53:37.282Z,1.58
2023-01-17T02:56:25.743Z,1.40
2023-01-17T02:58:58.157Z,1.52
2023-01-17T03:01:36.704Z,2.03
2023-01-17T03:04:17.862Z,1.40
2023-01-17T03:06:51.966Z,1.33
2023-01-17T03:09:19.965Z,1.80
2023-01-17T03:11:46.565Z,1.40
2023-01-17T03:14:13.150Z,1.60
2023-01-17T03:16:39.706Z,1.45
2023-01-17T03:19:06.259Z,1.63
2023-01-17T03:21:32.868Z,1.60
2023-01-17T03:23:59.337Z,1.50
2023-01-17T03:26:25.880Z,1.45
2023-01-17T03:28:52.301Z,1.35
2023-01-17T03:31:19.964Z,1.60
2023-01-17T03:33:46.752Z,1.20
2023-01-17T03:36:13.291Z,1.40
2023-01-17T03:38:39.674Z,1.30
2023-01-17T03:41:06.512Z,1.50
2023-01-17T03:43:32.926Z,1.30
2023-01-17T03:46:04.621Z,1.85
2023-01-17T03:48:31.936Z,1.23
2023-01-17T03:50:58.564Z,1.80
2023-01-17T03:53:25.189Z,1.00
2023-01-17T03:55:51.901Z,1.20
2023-01-17T03:58:18.595Z,1.45
2023-01-17T04:00:45.203Z,1.33
2023-01-17T04:03:11.602Z,1.45
2023-01-17T04:05:38.107Z,1.63
2023-01-17T04:08:06.604Z,1.88
2023-01-17T04:10:33.193Z,1.20
2023-01-17T04:12:59.601Z,1.35
2023-01-17T04:15:26.157Z,1.60
2023-01-17T04:17:52.601Z,1.45
2023-01-17T04:20:46.131Z,1.20
2023-01-17T04:23:12.816Z,1.10
2023-01-17T04:25:39.327Z,1.33
2023-01-17T04:28:05.817Z,1.83
2023-01-17T04:30:33.104Z,1.52
2023-01-17T04:32:59.916Z,1.20
2023-01-17T04:35:26.807Z,1.38
2023-01-17T04:37:53.258Z,1.60
2023-01-17T04:40:20.309Z,1.38
2023-01-17T04:42:47.449Z,1.20
2023-01-17T04:45:14.655Z,1.40
2023-01-17T04:47:41.069Z,1.48
2023-01-17T04:50:08.726Z,1.45
2023-01-17T04:52:35.323Z,1.30
2023-01-17T04:55:01.918Z,1.20
2023-01-17T04:57:28.729Z,1.52
2023-01-17T04:59:55.180Z,1.55
2023-01-17T05:02:22.039Z,1.30
2023-01-17T05:04:48.458Z,1.20
2023-01-17T05:07:15.074Z,1.58
2023-01-17T05:09:41.604Z,1.55
2023-01-17T05:12:08.190Z,1.45
2023-01-17T05:14:34.604Z,1.50
2023-01-17T05:17:02.998Z,1.40
2023-01-17T05:19:29.595Z,1.58
2023-01-17T05:21:56.122Z,1.50
2023-01-17T05:24:22.527Z,1.60
2023-01-17T05:26:54.975Z,1.88
2023-01-17T05:29:21.897Z,1.60
2023-01-17T05:31:48.631Z,1.67
2023-01-17T05:34:15.192Z,1.63
2023-01-17T05:36:41.932Z,1.60
2023-01-17T05:39:08.315Z,1.45
2023-01-17T05:41:34.674Z,1.90
2023-01-17T05:44:01.287Z,1.90
2023-01-17T05:46:27.787Z,1.95
2023-01-17T05:48:54.179Z,1.80
2023-01-17T05:51:20.777Z,1.75
2023-01-17T05:53:47.170Z,1.88
2023-01-17T05:56:14.095Z,1.70
2023-01-17T05:58:40.692Z,1.77
2023-01-17T06:01:07.186Z,1.83
2023-01-17T06:03:33.958Z,3.28
2023-01-17T06:06:00.398Z,2.28
2023-01-17T06:08:26.780Z,2.10
2023-01-17T06:10:53.326Z,2.78
2023-01-17T06:13:21.939Z,2.28
2023-01-17T06:15:48.981Z,2.40
2023-01-17T06:18:16.996Z,2.30
2023-01-17T06:20:44.268Z,2.20
2023-01-17T06:23:13.009Z,2.38
2023-01-17T06:25:45.125Z,2.05
2023-01-17T06:28:16.737Z,1.90
2023-01-17T06:30:43.916Z,2.15
2023-01-17T06:33:10.698Z,2.10
2023-01-17T06:35:44.208Z,2.35
2023-01-17T06:38:10.662Z,2.40
2023-01-17T06:40:37.235Z,2.33
2023-01-17T06:43:04.664Z,2.20
2023-01-17T06:45:33.751Z,2.38
2023-01-17T06:48:01.540Z,1.95
2023-01-17T06:50:28.371Z,2.00
2023-01-17T06:52:56.740Z,2.60
2023-01-17T06:55:23.805Z,2.60
2023-01-17T06:57:50.644Z,2.30
2023-01-17T07:00:17.574Z,2.22
2023-01-17T07:02:47.701Z,2.53
2023-01-17T07:05:16.270Z,2.25
2023-01-17T07:07:43.790Z,2.00
2023-01-17T07:10:11.548Z,2.20
2023-01-17T07:12:38.205Z,2.15
2023-01-17T07:15:06.137Z,1.90
2023-01-17T07:17:34.326Z,2.33
2023-01-17T07:20:01.370Z,2.00
2023-01-17T07:22:27.896Z,2.15
2023-01-17T07:24:58.346Z,1.98
2023-01-17T07:27:25.774Z,2.42
2023-01-17T07:29:54.296Z,2.35
2023-01-17T07:32:20.954Z,1.92
2023-01-17T07:34:48.756Z,2.17
2023-01-17T07:37:15.612Z,2.28
2023-01-17T07:39:42.422Z,2.13
2023-01-17T07:42:09.273Z,2.20
2023-01-17T07:44:36.137Z,2.58
2023-01-17T07:47:04.121Z,2.22
2023-01-17T07:49:30.588Z,2.20
2023-01-17T07:51:57.078Z,2.40
2023-01-17T07:54:23.432Z,2.55
2023-01-17T07:56:49.909Z,2.20
2023-01-17T07:59:17.893Z,2.13
2023-01-17T08:01:44.572Z,2.20
2023-01-17T08:04:11.545Z,2.00
2023-01-17T08:06:43.303Z,2.17
2023-01-17T08:09:09.965Z,2.42
2023-01-17T08:11:36.387Z,2.20
2023-01-17T08:14:02.872Z,2.17
2023-01-17T08:16:31.001Z,2.35
2023-01-17T08:18:57.493Z,2.30
2023-01-17T08:21:24.137Z,2.20
2023-01-17T08:23:52.322Z,2.30
2023-01-17T08:26:23.693Z,2.35
2023-01-17T08:29:02.906Z,2.22
2023-01-17T08:31:34.577Z,2.38
2023-01-17T08:34:01.531Z,2.58
2023-01-17T08:36:28.774Z,2.40
2023-01-17T08:38:55.571Z,2.63
2023-01-17T08:41:23.222Z,2.22
2023-01-17T08:43:51.629Z,2.45
2023-01-17T08:46:18.509Z,2.53
2023-01-17T08:48:45.591Z,3.10
2023-01-17T08:51:12.420Z,2.25
2023-01-17T08:53:39.113Z,2.30
2023-01-17T08:56:06.105Z,2.50
2023-01-17T08:58:32.969Z,2.70
2023-01-17T09:01:02.583Z,2.80
2023-01-17T09:03:30.783Z,2.45
2023-01-17T09:06:05.870Z,2.55
2023-01-17T09:10:58.986Z,2.65
2023-01-17T09:13:25.581Z,2.80
2023-01-17T09:15:56.381Z,3.10
2023-01-17T09:18:23.238Z,2.60
2023-01-17T09:20:49.606Z,1.92
2023-01-17T09:23:16.147Z,3.00
2023-01-17T09:25:44.557Z,2.80
2023-01-17T09:28:11.058Z,2.63
2023-01-17T09:30:37.447Z,2.97
2023-01-17T09:33:04.085Z,2.95
2023-01-17T09:35:31.239Z,2.63
2023-01-17T09:37:58.219Z,2.72
2023-01-17T09:40:25.520Z,2.90
2023-01-17T09:42:58.074Z,3.13
2023-01-17T09:45:27.685Z,2.92
2023-01-17T09:47:54.899Z,2.85
2023-01-17T09:50:28.578Z,2.83
2023-01-17T09:53:01.221Z,3.00
2023-01-17T09:55:37.093Z,3.40
2023-01-17T09:58:09.260Z,3.13
2023-01-17T10:00:45.054Z,2.63
2023-01-17T10:03:28.526Z,2.67
2023-01-17T10:06:12.787Z,2.40
2023-01-17T10:08:55.513Z,2.50
2023-01-17T10:11:50.077Z,2.45
2023-01-17T10:14:34.242Z,2.50
2023-01-17T10:17:22.248Z,3.75
2023-01-17T10:20:13.796Z,2.53
2023-01-17T10:23:03.826Z,2.53
2023-01-17T10:25:47.593Z,2.25
2023-01-17T10:28:23.394Z,2.63
2023-01-17T10:30:52.559Z,2.33
2023-01-17T10:33:20.927Z,2.42
2023-01-17T10:36:18.706Z,2.40
2023-01-17T10:38:48.468Z,2.45
2023-01-17T10:41:18.147Z,2.88
2023-01-17T10:43:59.855Z,2.40
2023-01-17T10:46:52.018Z,2.50
2023-01-17T10:49:24.604Z,2.33
2023-01-17T10:52:06.451Z,2.40
2023-01-17T10:55:16.376Z,1.98
2023-01-17T10:57:44.621Z,1.83
2023-01-17T11:00:43.972Z,1.70
2023-01-17T11:03:15.972Z,1.55
2023-01-17T11:05:43.117Z,1.80
2023-01-17T11:08:15.553Z,1.42
2023-01-17T11:10:45.417Z,1.50
2023-01-17T11:13:32.773Z,1.88
2023-01-17T11:16:03.988Z,1.60
2023-01-17T11:18:33.310Z,2.25
2023-01-17T11:21:18.615Z,2.53
2023-01-17T11:23:47.660Z,1.70
2023-01-17T11:26:30.488Z,1.83
2023-01-17T11:29:32.155Z,1.33
2023-01-17T11:32:26.936Z,1.40
2023-01-17T11:35:17.621Z,1.50
2023-01-17T11:37:58.098Z,1.60
2023-01-17T11:40:41.336Z,1.50
2023-01-17T11:43:18.935Z,1.50
2023-01-17T11:45:47.379Z,1.33
2023-01-17T11:48:17.027Z,1.65
2023-01-17T11:51:00.544Z,1.58
2023-01-17T11:53:33.218Z,1.85
2023-01-17T11:56:11.127Z,1.85
2023-01-17T11:58:42.973Z,1.80
2023-01-17T12:02:02.096Z,1.80
2023-01-17T12:04:38.567Z,1.60
2023-01-17T12:07:17.927Z,1.77
2023-01-17T12:09:56.763Z,1.50
2023-01-17T12:12:44.854Z,1.52
2023-01-17T12:15:16.664Z,1.50
2023-01-17T12:17:50.338Z,1.92
2023-01-17T12:20:44.505Z,1.40
2023-01-17T12:23:40.465Z,1.42
2023-01-17T12:26:23.881Z,1.20
2023-01-17T12:29:12.534Z,1.52
2023-01-17T12:31:56.676Z,1.50
2023-01-17T12:34:41.868Z,1.50
2023-01-17T12:37:17.115Z,2.00
2023-01-17T12:39:51.133Z,1.88
2023-01-17T12:42:24.432Z,2.27
2023-01-17T12:45:04.314Z,1.90
2023-01-17T12:47:34.195Z,1.58
2023-01-17T12:50:20.060Z,1.38
2023-01-17T12:53:18.106Z,1.90
2023-01-17T12:56:05.882Z,1.60
2023-01-17T12:58:45.706Z,2.22
2023-01-17T13:01:22.951Z,1.40
2023-01-17T13:04:24.187Z,0.90
2023-01-17T13:06:59.600Z,1.15
2023-01-17T13:09:33.632Z,2.10
2023-01-17T13:12:10.078Z,1.15
2023-01-17T13:14:36.547Z,1.50
2023-01-17T13:17:49.776Z,1.27
2023-01-17T13:20:45.642Z,1.95
2023-01-17T13:26:01.932Z,1.75
2023-01-17T13:28:42.801Z,1.55
2023-01-17T13:31:17.019Z,1.67
2023-01-17T13:34:02.925Z,1.67
2023-01-17T13:36:40.313Z,1.70
2023-01-17T13:39:06.642Z,2.35
2023-01-17T13:41:42.235Z,1.92
2023-01-17T13:44:23.165Z,1.42
2023-01-17T13:47:04.121Z,1.55
2023-01-17T13:49:34.114Z,1.25
2023-01-17T13:52:20.877Z,1.10
2023-01-17T13:54:48.641Z,1.98
2023-01-17T13:57:32.910Z,1.80
2023-01-17T14:00:22.842Z,1.90
2023-01-17T14:02:51.076Z,2.00
2023-01-17T14:05:47.453Z,1.85
2023-01-17T14:08:17.310Z,1.30
2023-01-17T14:10:47.592Z,1.40
2023-01-17T14:13:35.539Z,1.60
2023-01-17T14:16:29.551Z,1.20
2023-01-17T14:18:56.316Z,1.20
2023-01-17T14:21:32.454Z,1.10
2023-01-17T14:24:06.431Z,1.17
2023-01-17T14:27:14.727Z,1.10
2023-01-17T14:29:48.676Z,1.20
2023-01-17T14:32:21.929Z,1.38
2023-01-17T14:34:51.177Z,1.13
2023-01-17T14:37:24.145Z,0.95
2023-01-17T14:39:51.195Z,1.13
2023-01-17T14:42:22.086Z,1.45
2023-01-17T14:44:51.388Z,1.13
2023-01-17T14:47:17.960Z,1.00
2023-01-17T14:49:44.862Z,1.20
2023-01-17T14:52:17.496Z,1.35
2023-01-17T14:54:48.902Z,1.17
2023-01-17T14:57:28.200Z,1.20
2023-01-17T15:00:21.021Z,1.58
2023-01-17T15:02:49.011Z,1.45
2023-01-17T15:05:18.739Z,1.27
2023-01-17T15:07:48.500Z,1.25
2023-01-17T15:10:18.600Z,1.10
2023-01-17T15:12:48.130Z,1.10
2023-01-17T15:15:32.889Z,1.30
2023-01-17T15:18:09.635Z,1.17
2023-01-17T15:20:37.853Z,2.50
2023-01-17T15:23:04.516Z,2.70
2023-01-17T15:25:31.368Z,2.97
2023-01-17T15:27:58.138Z,2.00
2023-01-17T15:30:25.264Z,3.22
2023-01-17T15:32:52.881Z,2.80
2023-01-17T15:35:20.456Z,2.30
2023-01-17T15:37:52.604Z,3.42
2023-01-17T15:40:24.511Z,3.55
2023-01-17T15:42:56.447Z,2.35
2023-01-17T15:45:28.392Z,1.90
2023-01-17T15:47:56.316Z,2.50
2023-01-17T15:50:24.550Z,1.77
2023-01-17T15:53:05.912Z,1.98
2023-01-17T15:55:38.594Z,2.30
2023-01-17T15:58:23.157Z,1.75
2023-01-17T16:00:49.672Z,2.00
2023-01-17T16:03:19.356Z,1.95
2023-01-17T16:05:46.807Z,1.50
2023-01-17T16:08:16.047Z,1.83
2023-01-17T16:10:44.434Z,1.60
2023-01-17T16:13:13.562Z,1.50
2023-01-17T16:15:42.772Z,1.55
2023-01-17T16:18:23.953Z,1.63
2023-01-17T16:21:14.636Z,1.42
2023-01-17T16:23:41.580Z,1.88
2023-01-17T16:26:10.837Z,2.53
2023-01-17T16:28:38.549Z,2.28
2023-01-17T16:31:05.365Z,2.20
2023-01-17T16:33:31.805Z,2.95
2023-01-17T16:35:58.521Z,2.50
2023-01-17T16:38:25.011Z,2.58
2023-01-17T16:40:51.450Z,2.60
2023-01-17T16:43:19.235Z,2.50
2023-01-17T16:45:48.216Z,2.20
2023-01-17T16:48:16.342Z,3.53
2023-01-17T16:50:48.093Z,3.38
2023-01-17T16:53:15.321Z,7.53
2023-01-17T16:55:43.625Z,5.30
2023-01-17T16:58:10.297Z,3.80
2023-01-17T17:00:37.067Z,2.40
2023-01-17T17:03:03.690Z,2.38
2023-01-17T17:05:33.387Z,2.35
2023-01-17T17:08:00.896Z,2.22
2023-01-17T17:10:27.918Z,2.03
2023-01-17T17:12:55.012Z,2.20
2023-01-17T17:15:21.500Z,2.70
2023-01-17T17:17:48.226Z,2.33
2023-01-17T17:20:15.607Z,2.60
2023-01-17T17:22:44.041Z,2.30
2023-01-17T17:25:12.070Z,2.25
2023-01-17T17:27:39.050Z,2.42
2023-01-17T17:30:06.390Z,2.42
2023-01-17T17:32:33.060Z,2.28
2023-01-17T17:34:59.791Z,2.55
2023-01-17T17:37:28.963Z,2.53
2023-01-17T17:39:56.595Z,2.63
2023-01-17T17:42:23.532Z,2.00
2023-01-17T17:44:49.978Z,1.90
2023-01-17T17:47:16.588Z,2.40
2023-01-17T17:49:43.445Z,2.08
2023-01-17T17:52:10.510Z,1.80
2023-01-17T17:54:36.935Z,1.60
2023-01-17T17:57:03.630Z,1.60
2023-01-17T17:59:31.118Z,2.22
2023-01-17T18:01:59.596Z,1.45
2023-01-17T18:04:26.769Z,1.73
2023-01-17T18:06:57.515Z,1.73
2023-01-17T18:09:24.640Z,1.95
2023-01-17T18:11:51.167Z,1.80
2023-01-17T18:14:20.763Z,2.20
2023-01-17T18:16:47.671Z,3.47
2023-01-17T18:19:18.018Z,3.00
2023-01-17T18:21:44.627Z,2.38
2023-01-17T18:24:13.949Z,2.45
2023-01-17T18:26:42.239Z,3.30
2023-01-17T18:29:12.380Z,3.05
2023-01-17T18:31:38.893Z,5.28
2023-01-17T18:34:08.371Z,4.78
2023-01-17T18:36:35.586Z,3.97
2023-01-17T18:39:05.448Z,3.50
2023-01-17T18:41:32.357Z,2.90
2023-01-17T18:43:58.927Z,3.10
2023-01-17T18:46:26.241Z,2.90
2023-01-17T18:48:56.033Z,3.63
2023-01-17T18:51:22.919Z,2.83
2023-01-17T18:53:49.851Z,4.05
2023-01-17T18:56:19.471Z,4.55
2023-01-17T18:58:47.843Z,3.08
2023-01-17T19:01:23.196Z,2.22
2023-01-17T19:03:52.437Z,2.70
2023-01-17T19:06:24.889Z,1.98
2023-01-17T19:08:51.969Z,1.77
2023-01-17T19:11:20.530Z,1.88
2023-01-17T19:13:48.484Z,2.53
2023-01-17T19:16:24.405Z,2.70
2023-01-17T19:18:52.223Z,2.75
2023-01-17T19:21:21.375Z,2.88
2023-01-17T19:23:49.104Z,2.63
2023-01-17T19:26:20.037Z,2.08
2023-01-17T19:28:48.864Z,2.40
2023-01-17T19:31:18.490Z,2.60
2023-01-17T19:33:46.766Z,2.40
2023-01-17T19:36:19.328Z,2.22
2023-01-17T19:38:58.742Z,2.53
2023-01-17T19:41:30.634Z,2.00
2023-01-17T19:44:02.236Z,2.10
2023-01-17T19:46:29.192Z,2.40
2023-01-17T19:48:57.478Z,2.78
2023-01-17T19:51:24.999Z,2.40
2023-01-17T19:53:53.447Z,1.65
2023-01-17T19:56:22.219Z,1.90
2023-01-17T19:58:49.037Z,2.22
2023-01-17T20:01:21.519Z,2.30
2023-01-17T20:03:51.141Z,1.75
2023-01-17T20:06:20.644Z,1.83
2023-01-17T20:08:47.270Z,2.15
2023-01-17T20:11:20.120Z,2.20
2023-01-17T20:13:47.852Z,2.15
2023-01-17T20:16:16.504Z,2.53
2023-01-17T20:18:43.947Z,2.47
2023-01-17T20:21:18.726Z,2.72
2023-01-17T20:23:49.975Z,2.25
2023-01-17T20:26:34.267Z,2.35
2023-01-17T20:29:02.759Z,2.30
2023-01-17T20:31:30.025Z,2.35
2023-01-17T20:33:56.693Z,2.13
2023-01-17T20:36:26.611Z,2.38
2023-01-17T20:38:54.443Z,2.03
2023-01-17T20:41:28.534Z,2.10
2023-01-17T20:43:57.373Z,2.63
2023-01-17T20:46:26.559Z,2.33
2023-01-17T20:48:55.139Z,2.55
2023-01-17T20:51:24.025Z,3.22
2023-01-17T20:53:53.110Z,2.63
2023-01-17T20:56:20.189Z,2.70
2023-01-17T20:58:46.625Z,2.20
2023-01-17T21:01:24.833Z,2.20
2023-01-17T21:03:53.717Z,2.53
2023-01-17T21:06:24.528Z,2.80
2023-01-17T21:08:52.036Z,2.72
2023-01-17T21:11:21.497Z,2.78
2023-01-17T21:13:48.852Z,2.72
2023-01-17T21:16:20.251Z,2.92
2023-01-17T21:18:48.150Z,2.67
2023-01-17T21:21:21.897Z,2.63
2023-01-17T21:23:50.653Z,2.90
2023-01-17T21:26:19.498Z,2.85
2023-01-17T21:28:47.550Z,2.20
2023-01-17T21:31:24.750Z,2.88
2023-01-17T21:33:58.055Z,2.90
2023-01-17T21:36:30.562Z,2.38
2023-01-17T21:38:58.622Z,2.75
2023-01-17T21:41:28.543Z,2.25
2023-01-17T21:43:57.071Z,2.60
2023-01-17T21:46:24.676Z,2.83
2023-01-17T21:48:52.283Z,2.53
2023-01-17T21:51:21.937Z,2.50
2023-01-17T21:53:48.625Z,3.33
2023-01-17T21:56:33.909Z,2.88
2023-01-17T22:01:29.577Z,3.67
2023-01-17T22:04:02.637Z,2.75
2023-01-17T22:06:34.239Z,2.05
2023-01-17T22:09:00.683Z,2.20
2023-01-17T22:11:30.211Z,2.50
2023-01-17T22:13:58.864Z,2.80
2023-01-17T22:16:25.884Z,2.33
2023-01-17T22:18:52.701Z,2.17
2023-01-17T22:21:24.767Z,2.67
2023-01-17T22:23:53.652Z,2.75
2023-01-17T22:26:26.659Z,2.97
2023-01-17T22:28:53.841Z,2.55
2023-01-17T22:31:25.825Z,2.60
2023-01-17T22:33:55.072Z,2.33
2023-01-17T22:36:22.120Z,2.35
2023-01-17T22:38:48.764Z,2.00
2023-01-17T22:41:19.885Z,2.17
2023-01-17T22:43:48.915Z,2.00
2023-01-17T22:46:21.484Z,2.58
2023-01-17T22:48:48.504Z,2.35
2023-01-17T22:51:16.846Z,2.42
2023-01-17T22:53:48.803Z,2.42
2023-01-17T22:56:18.447Z,2.28
2023-01-17T22:58:45.402Z,2.47
2023-01-17T23:01:17.408Z,2.42
2023-01-17T23:03:45.186Z,2.25
2023-01-17T23:06:11.971Z,2.40
2023-01-17T23:08:41.181Z,2.42
2023-01-17T23:11:43.856Z,2.20
2023-01-17T23:14:16.749Z,2.70
2023-01-17T23:17:06.240Z,2.55
2023-01-17T23:19:44.162Z,3.17
2023-01-17T23:22:15.933Z,2.47
2023-01-17T23:24:55.820Z,2.67
2023-01-17T23:27:42.370Z,2.92
2023-01-17T23:30:16.309Z,2.85
2023-01-17T23:32:52.049Z,2.70
2023-01-17T23:35:20.545Z,2.97
2023-01-17T23:38:05.983Z,3.00
2023-01-17T23:40:34.373Z,3.53
2023-01-17T23:43:19.913Z,3.00
2023-01-17T23:45:46.796Z,3.28
2023-01-17T23:48:13.607Z,3.50
2023-01-17T23:50:42.464Z,2.97
2023-01-17T23:53:09.405Z,3.45
2023-01-17T23:55:38.033Z,3.70
2023-01-17T23:58:10.208Z,3.42
